메인 페이지
METAR-TAF:

METAR-TAF

공항 :

니노이 아키노 국제공항

마닐라, 필리핀

위도: 14-31N, 경도: 121-00E, 고도: 14m

현재 날씨관측

예보는 41분 전, 16:00시(UTC)에 발표되었습니다.
남서4kt
온도 27°C
습도 100%
기압 1007 hPa
시정 10km 이상
고도 2300ft 상공 구름 보통
고도 9000ft 상공 흐림

METAR: RPLL 151600Z 23004KT 9999 SCT023 OVC090 27/27 Q1007 RESHRA NOSIG RMK A2974

시각: 00:41 (16:41 UTC)

예보

예보는 5 시간 21분 전, 11:20시(UTC)에 발표되었습니다.
예보 대상 시간: 15일 12시부터 16일 18시까지 (UTC)
서남서10kt
시정 10km 이상
고도 2300ft 상공 구름 조금
고도 10000ft 상공 구름 보통
일시적
15일 12시부터 15일 18시까지 (UTC)
서남서13kt
시정: 8000m
고도 2200ft 상공 구름 조금, 적란운.
고도 2300ft 상공 구름 보통
고도 9000ft 상공 구름 많음
뇌우, 약한비
일시적
15일 18시부터 15일 24시까지 (UTC)
서남서12kt
고도 2300ft 상공 구름 보통
고도 10000ft 상공 구름 많음

TAF: RPLL 151120Z 1512/1618 25010KT 9999 FEW023 SCT100 TX32/1606Z TN27/1522Z TEMPO 1512/1518 25013KT 8000 -TSRA FEW022CB SCT023 BKN090 TEMPO 1518/1524 24012KT SCT023 BKN100

4,000개 이상의 공항 관측 자료 및 예보 (METAR 및 TAF 보고).

지도상에서 검색 가능한 기상관측소가 노란 점과 빨간 점으로 표시되어 있습니다.

기상관측소 명을 보려면 표시 위로 마우스를 이동하세요.

날씨 관측과 예보를 보려면 클릭하세요.

지도 변경 : 확대하려면 엑스 표시가 있는 녹색 버튼, 축소하려면 빼기 표시가 있는 녹색 버튼, 다음 페이지의 지도를 보려면 녹색 화살표를 클릭하세요.


METAR-TAF: